TimeCDT,TemperatureF,Dew PointF,Humidity,Sea Level PressureIn,VisibilityMPH,Wind Direction,Wind SpeedMPH,Gust SpeedMPH,PrecipitationIn,Events,Conditions,WindDirDegrees,DateUTC
12:15 AM,55.4,53.6,94,30.01,10.0,Calm,Calm,-,N/A,,Clear,0,2013-10-03 05:15:00
12:35 AM,57.2,55.4,94,30.01,10.0,Calm,Calm,-,N/A,,Clear,0,2013-10-03 05:35:00
12:55 AM,57.2,55.4,94,30.01,10.0,Calm,Calm,-,N/A,,Clear,0,2013-10-03 05:55:00
1:15 AM,57.2,55.4,94,30.01,10.0,Calm,Calm,-,N/A,,Clear,0,2013-10-03 06:15:00
1:35 AM,57.2,55.4,94,30.01,7.0,Calm,Calm,-,N/A,,Scattered Clouds,0,2013-10-03 06:35:00
1:55 AM,57.2,55.4,94,30.01,10.0,Calm,Calm,-,N/A,,Scattered Clouds,0,2013-10-03 06:55:00
2:15 AM,57.2,55.4,94,30.01,7.0,Calm,Calm,-,N/A,,Mostly Cloudy,0,2013-10-03 07:15:00
2:35 AM,59.0,55.4,88,30.00,10.0,Calm,Calm,-,N/A,,Scattered Clouds,0,2013-10-03 07:35:00
2:55 AM,57.2,55.4,94,30.00,2.5,Calm,Calm,-,N/A,,Clear,0,2013-10-03 07:55:00
3:15 AM,57.2,55.4,94,29.99,2.0,Calm,Calm,-,N/A,,Clear,0,2013-10-03 08:15:00
3:35 AM,57.2,55.4,94,29.99,1.0,Calm,Calm,-,N/A,,Overcast,0,2013-10-03 08:35:00
3:55 AM,59.0,57.2,94,30.00,7.0,Calm,Calm,-,N/A,,Overcast,0,2013-10-03 08:55:00
4:15 AM,60.8,60.8,100,29.99,4.0,Calm,Calm,-,N/A,,Overcast,0,2013-10-03 09:15:00
4:35 AM,64.4,62.6,94,29.99,4.0,Calm,Calm,-,N/A,,Overcast,0,2013-10-03 09:35:00
4:55 AM,64.4,64.4,100,29.99,5.0,South,3.5,-,N/A,,Overcast,170,2013-10-03 09:55:00
5:15 AM,64.4,62.6,94,29.99,5.0,South,4.6,-,N/A,,Overcast,170,2013-10-03 10:15:00
5:35 AM,66.2,64.4,94,29.99,5.0,South,4.6,-,N/A,,Overcast,170,2013-10-03 10:35:00
5:55 AM,66.2,62.6,88,29.99,5.0,Calm,Calm,-,N/A,,Overcast,0,2013-10-03 10:55:00
6:15 AM,66.2,64.4,94,29.99,5.0,SSE,3.5,-,N/A,,Overcast,160,2013-10-03 11:15:00
6:35 AM,66.2,64.4,94,29.99,4.0,South,5.8,-,N/A,,Overcast,180,2013-10-03 11:35:00
6:55 AM,66.2,64.4,94,29.99,2.5,South,3.5,-,N/A,,Overcast,170,2013-10-03 11:55:00
7:15 AM,66.2,64.4,94,30.00,2.0,South,3.5,-,N/A,,Overcast,190,2013-10-03 12:15:00
7:35 AM,66.2,64.4,94,29.99,2.0,South,5.8,-,N/A,,Overcast,180,2013-10-03 12:35:00
7:55 AM,66.2,64.4,94,30.00,2.0,South,8.1,-,N/A,,Overcast,190,2013-10-03 12:55:00
8:15 AM,68.0,64.4,88,29.99,2.5,South,4.6,-,N/A,,Overcast,180,2013-10-03 13:15:00
8:35 AM,68.0,64.4,88,29.99,3.0,South,3.5,-,N/A,,Overcast,170,2013-10-03 13:35:00
8:55 AM,68.0,64.4,88,29.99,3.0,SSW,4.6,-,N/A,,Overcast,200,2013-10-03 13:55:00
9:15 AM,68.0,64.4,88,30.00,4.0,South,5.8,-,N/A,,Overcast,180,2013-10-03 14:15:00
9:35 AM,68.0,64.4,88,30.00,3.0,SSW,5.8,-,N/A,,Overcast,200,2013-10-03 14:35:00
9:55 AM,68.0,64.4,88,29.99,3.0,South,6.9,-,N/A,,Overcast,190,2013-10-03 14:55:00
10:15 AM,68.0,64.4,88,29.99,2.0,South,5.8,-,N/A,,Overcast,180,2013-10-03 15:15:00
10:35 AM,68.0,66.2,94,29.98,4.0,South,4.6,-,N/A,Rain,Light Rain,170,2013-10-03 15:35:00
10:55 AM,68.0,66.2,94,29.99,4.0,South,4.6,-,N/A,Rain,Light Rain,180,2013-10-03 15:55:00
11:15 AM,68.0,64.4,88,29.99,4.0,SSW,4.6,-,N/A,Rain,Rain,200,2013-10-03 16:15:00
11:35 AM,68.0,64.4,88,30.00,5.0,SSW,8.1,-,N/A,Rain,Light Rain,210,2013-10-03 16:35:00
11:55 AM,68.0,64.4,88,29.99,7.0,SSW,8.1,-,N/A,Rain,Light Rain,210,2013-10-03 16:55:00
12:15 PM,68.0,64.4,88,29.98,7.0,South,3.5,-,N/A,Rain,Light Rain,190,2013-10-03 17:15:00
12:35 PM,68.0,64.4,88,29.98,5.0,South,4.6,-,N/A,Rain,Rain,190,2013-10-03 17:35:00
12:55 PM,68.0,64.4,88,29.97,10.0,South,4.6,-,N/A,Rain,Light Rain,190,2013-10-03 17:55:00
1:15 PM,68.0,64.4,88,29.97,10.0,South,8.1,-,N/A,,Mostly Cloudy,190,2013-10-03 18:15:00
1:35 PM,69.8,66.2,88,29.96,10.0,SSW,10.4,-,N/A,,Mostly Cloudy,200,2013-10-03 18:35:00
1:55 PM,69.8,68.0,94,29.95,10.0,SSW,9.2,-,N/A,,Overcast,200,2013-10-03 18:55:00
2:15 PM,69.8,68.0,94,29.95,10.0,South,5.8,-,N/A,,Overcast,190,2013-10-03 19:15:00
2:35 PM,71.6,68.0,88,29.94,10.0,SSW,8.1,-,N/A,,Overcast,200,2013-10-03 19:35:00
2:55 PM,73.4,68.0,83,29.94,10.0,SSW,8.1,-,N/A,,Overcast,200,2013-10-03 19:55:00
3:15 PM,73.4,68.0,83,29.93,10.0,South,9.2,-,N/A,,Mostly Cloudy,180,2013-10-03 20:15:00
3:35 PM,73.4,66.2,78,29.92,10.0,South,9.2,-,N/A,,Scattered Clouds,190,2013-10-03 20:35:00
3:55 PM,75.2,66.2,73,29.92,10.0,SSW,6.9,-,N/A,,Clear,200,2013-10-03 20:55:00
4:15 PM,75.2,66.2,73,29.91,10.0,South,8.1,-,N/A,,Clear,190,2013-10-03 21:15:00
4:35 PM,75.2,64.4,69,29.90,10.0,South,6.9,-,N/A,,Clear,170,2013-10-03 21:35:00
4:55 PM,75.2,66.2,73,29.89,10.0,South,6.9,-,N/A,,Clear,180,2013-10-03 21:55:00
5:15 PM,71.6,64.4,78,29.89,10.0,South,4.6,-,N/A,,Clear,180,2013-10-03 22:15:00
5:35 PM,71.6,64.4,78,29.90,10.0,South,4.6,-,N/A,,Clear,180,2013-10-03 22:35:00
5:55 PM,71.6,66.2,83,29.90,10.0,Calm,Calm,-,N/A,,Scattered Clouds,0,2013-10-03 22:55:00
6:15 PM,69.8,64.4,83,29.91,10.0,Calm,Calm,-,N/A,Rain,Light Rain,0,2013-10-03 23:15:00
6:35 PM,69.8,66.2,88,29.92,10.0,South,12.7,16.1,N/A,Rain,Light Rain,190,2013-10-03 23:35:00
6:55 PM,68.0,64.4,88,29.92,10.0,SSE,3.5,-,N/A,Rain,Light Rain,160,2013-10-03 23:55:00
7:15 PM,68.0,62.6,83,29.92,10.0,South,3.5,-,N/A,,Mostly Cloudy,170,2013-10-04 00:15:00
7:35 PM,66.2,62.6,88,29.93,10.0,Calm,Calm,-,N/A,,Mostly Cloudy,0,2013-10-04 00:35:00
7:55 PM,68.0,64.4,88,29.93,10.0,South,4.6,-,N/A,,Mostly Cloudy,170,2013-10-04 00:55:00
8:15 PM,68.0,64.4,88,29.93,10.0,South,9.2,-,N/A,,Mostly Cloudy,180,2013-10-04 01:15:00
8:35 PM,66.2,62.6,88,29.97,4.0,West,11.5,-,N/A,Rain,Heavy Rain,280,2013-10-04 01:35:00
8:55 PM,66.2,64.4,94,29.95,10.0,Calm,Calm,-,N/A,Rain,Light Rain,0,2013-10-04 01:55:00
9:15 PM,66.2,62.6,88,29.95,10.0,South,3.5,-,N/A,,Overcast,170,2013-10-04 02:15:00
9:35 PM,66.2,62.6,88,29.94,10.0,Calm,Calm,-,N/A,,Overcast,0,2013-10-04 02:35:00
9:55 PM,64.4,60.8,88,29.95,10.0,South,4.6,-,N/A,,Mostly Cloudy,180,2013-10-04 02:55:00
10:15 PM,66.2,60.8,83,29.95,10.0,South,5.8,-,N/A,,Mostly Cloudy,180,2013-10-04 03:15:00
10:35 PM,66.2,60.8,83,29.96,10.0,South,8.1,-,N/A,,Scattered Clouds,180,2013-10-04 03:35:00
11:35 PM,66.2,62.6,88,29.93,10.0,South,4.6,-,N/A,,Mostly Cloudy,180,2013-10-04 04:35:00
11:55 PM,66.2,62.6,88,29.93,10.0,SSW,5.8,-,N/A,Rain,Light Rain,200,2013-10-04 04:55:00